Time;durP1;ratioP1;P1;durP2;ratioP2;P2;SDS_P1;SDS_P2;PMS_P1;PMS_P2;Temp;Humidity;BMP_temperature;BMP_pressure;BME280_temperature;BME280_humidity;BME280_pressure;Samples;Min_cycle;Max_cycle;Signal;HPM_P1;HPM_P2
2022/05/07 00:00:47;;;;;;;;;22.00;22.00;;;;;16.36;55.61;102281.53;4993406;28;9953;-64
2022/05/07 00:03:13;;;;;;;;;20.25;18.75;;;;;16.36;55.61;102281.53;4993222;28;9914;-64
2022/05/07 00:05:40;;;;;;;;;24.75;22.00;;;;;16.36;55.37;102272.53;4993583;28;10684;-64
2022/05/07 00:08:06;;;;;;;;;23.75;21.25;;;;;16.33;55.55;102273.78;4989193;28;9879;-64
2022/05/07 00:10:33;;;;;;;;;20.25;19.25;;;;;16.31;56.02;102276.69;4990710;28;10122;-64
2022/05/07 00:12:59;;;;;;;;;23.50;18.50;;;;;16.30;55.94;102275.00;4993172;28;10015;-65
2022/05/07 00:15:26;;;;;;;;;23.50;20.50;;;;;16.29;55.99;102265.19;4992198;28;9802;-65
2022/05/07 00:18:03;;;;;;;;;21.75;19.00;;;;;16.29;56.05;102261.63;4993029;28;9841;-63
2022/05/07 00:20:31;;;;;;;;;20.50;20.50;;;;;16.27;56.01;102259.09;4992771;28;9844;-65
2022/05/07 00:22:58;;;;;;;;;20.75;20.50;;;;;16.26;56.18;102254.72;4991321;28;10081;-65
2022/05/07 00:25:25;;;;;;;;;20.50;20.50;;;;;16.25;56.00;102261.19;4992501;28;10015;-65
2022/05/07 00:27:52;;;;;;;;;24.50;19.00;;;;;16.20;56.28;102251.94;4992615;28;9765;-65
2022/05/07 00:30:19;;;;;;;;;24.75;20.25;;;;;16.18;56.38;102249.44;4993347;28;9872;-63
2022/05/07 00:32:46;;;;;;;;;24.50;19.00;;;;;16.17;56.45;102244.19;4993053;28;9768;-65
2022/05/07 00:35:13;;;;;;;;;24.50;23.00;;;;;16.16;56.11;102240.63;4993051;28;9860;-64
2022/05/07 00:37:39;;;;;;;;;21.00;20.00;;;;;16.13;56.10;102246.47;4992017;28;9795;-63
2022/05/07 00:40:06;;;;;;;;;21.50;19.50;;;;;16.10;55.49;102241.41;4990734;28;9812;-65
2022/05/07 00:42:33;;;;;;;;;18.00;18.00;;;;;16.10;54.86;102244.13;4992363;28;9772;-65
2022/05/07 00:44:59;;;;;;;;;17.50;17.50;;;;;16.12;55.07;102242.03;4992946;28;9791;-65
2022/05/07 00:47:32;;;;;;;;;16.50;15.00;;;;;16.12;55.01;102238.50;4992191;28;9651;-64
2022/05/07 00:52:47;;;;;;;;;15.00;15.00;;;;;16.16;54.38;102246.03;4989066;28;9611;-64
2022/05/07 00:55:14;;;;;;;;;19.25;17.00;;;;;16.12;54.65;102233.91;4990164;28;9712;-65
2022/05/07 00:57:41;;;;;;;;;20.00;17.00;;;;;16.08;54.51;102232.59;5002249;28;9766;-65
2022/05/07 01:00:09;;;;;;;;;18.50;17.50;;;;;16.04;54.26;102237.63;5007707;28;9806;-65
2022/05/07 01:02:37;;;;;;;;;15.75;15.75;;;;;15.99;54.49;102231.91;4992696;28;9862;-69
2022/05/07 01:05:05;;;;;;;;;18.25;18.00;;;;;15.97;53.97;102225.03;4988713;28;9698;-65
2022/05/07 01:07:36;;;;;;;;;12.25;12.25;;;;;15.98;53.95;102227.53;5000720;28;9937;-65
2022/05/07 01:10:03;;;;;;;;;11.50;9.75;;;;;15.99;53.86;102229.19;4991228;28;9805;-64
2022/05/07 01:12:35;;;;;;;;;11.75;11.75;;;;;15.99;54.00;102223.78;4991544;28;9697;-64
2022/05/07 01:15:03;;;;;;;;;12.75;12.00;;;;;16.01;53.92;102224.44;4990326;28;9686;-65
2022/05/07 01:17:33;;;;;;;;;13.00;12.00;;;;;16.01;53.75;102220.88;4990898;28;9732;-65
2022/05/07 01:20:09;;;;;;;;;12.75;12.25;;;;;16.00;53.80;102221.88;4988582;28;9703;-64
2022/05/07 01:22:36;;;;;;;;;15.00;14.50;;;;;15.97;53.72;102231.28;4985879;28;10259;-65
2022/05/07 01:25:04;;;;;;;;;11.50;11.50;;;;;15.96;53.45;102226.91;4990403;28;10333;-65
2022/05/07 01:27:31;;;;;;;;;12.50;10.75;;;;;15.94;53.39;102223.53;4992078;28;9529;-65
2022/05/07 01:29:58;;;;;;;;;14.00;10.25;;;;;15.92;53.41;102222.03;4990986;28;9658;-64
2022/05/07 01:32:27;;;;;;;;;13.00;10.25;;;;;15.89;53.50;102223.28;4999362;28;9536;-64
2022/05/07 01:34:53;;;;;;;;;16.50;13.50;;;;;15.88;53.43;102218.03;4991687;28;9640;-64
2022/05/07 01:37:23;;;;;;;;;13.25;12.00;;;;;15.85;53.35;102222.00;4985575;28;9621;-62
2022/05/07 01:39:49;;;;;;;;;12.50;10.00;;;;;15.82;53.33;102220.50;4990833;28;9686;-63
2022/05/07 01:42:16;;;;;;;;;14.50;12.75;;;;;15.79;53.24;102223.59;4991801;28;9712;-65
2022/05/07 01:44:42;;;;;;;;;16.25;14.75;;;;;15.73;53.02;102224.38;4988513;28;10443;-64
2022/05/07 01:49:56;;;;;;;;;12.75;12.75;;;;;15.69;53.29;102220.38;4986937;28;11056;-64
2022/05/07 01:52:23;;;;;;;;;12.00;11.75;;;;;15.68;53.68;102218.72;4991774;28;9686;-63
2022/05/07 01:54:50;;;;;;;;;13.00;11.75;;;;;15.66;53.56;102215.34;4989755;28;9599;-64
2022/05/07 01:57:16;;;;;;;;;13.50;13.50;;;;;15.67;53.81;102217.00;4974928;28;9648;-64
2022/05/07 01:59:43;;;;;;;;;15.50;14.50;;;;;15.69;54.14;102214.13;4990107;28;9451;-64
2022/05/07 02:02:13;;;;;;;;;12.00;12.00;;;;;15.67;53.93;102213.47;4989418;28;9614;-64
2022/05/07 02:04:40;;;;;;;;;22.25;16.00;;;;;15.66;53.95;102212.63;4989572;28;9538;-65
2022/05/07 02:07:09;;;;;;;;;15.25;15.00;;;;;15.65;54.00;102218.25;4988959;28;9737;-64
2022/05/07 02:09:35;;;;;;;;;12.50;12.50;;;;;15.59;54.22;102212.50;4989407;28;9624;-63
2022/05/07 02:12:03;;;;;;;;;19.50;17.00;;;;;15.57;54.50;102214.59;4989535;28;9526;-64
2022/05/07 02:14:32;;;;;;;;;15.75;12.50;;;;;15.55;54.40;102216.66;4990367;28;9822;-64
2022/05/07 02:16:59;;;;;;;;;15.75;15.75;;;;;15.55;54.36;102211.22;4987834;28;9632;-62
2022/05/07 02:19:29;;;;;;;;;15.75;14.00;;;;;15.51;54.47;102211.81;4990941;28;10392;-63
2022/05/07 02:21:56;;;;;;;;;13.75;13.75;;;;;15.48;54.50;102207.63;5003237;28;10022;-65
2022/05/07 02:24:23;;;;;;;;;13.50;12.75;;;;;15.47;54.51;102205.09;5006100;28;9675;-64
2022/05/07 02:26:50;;;;;;;;;13.00;11.00;;;;;15.44;54.58;102206.34;4989622;28;9835;-65
2022/05/07 02:29:16;;;;;;;;;13.50;12.75;;;;;15.43;54.88;102211.94;4988354;28;9766;-64
2022/05/07 02:32:03;;;;;;;;;11.00;10.00;;;;;15.40;54.85;102207.75;4997044;28;9558;-64
2022/05/07 02:34:35;;;;;;;;;13.25;12.50;;;;;15.42;54.50;102207.53;4978698;28;9820;-63
2022/05/07 02:37:04;;;;;;;;;14.00;14.00;;;;;15.39;54.70;102219.63;4997441;28;9788;-64
2022/05/07 02:39:32;;;;;;;;;17.00;15.25;;;;;15.36;54.91;102219.19;4990019;28;10646;-65
2022/05/07 02:44:45;;;;;;;;;16.75;16.00;;;;;15.36;55.07;102205.63;4986296;28;9685;-64
2022/05/07 02:47:12;;;;;;;;;13.00;12.50;;;;;15.37;55.16;102212.72;5003201;28;9853;-65
2022/05/07 02:49:38;;;;;;;;;12.25;12.25;;;;;15.36;55.09;102209.16;4990540;28;9732;-65
2022/05/07 02:52:06;;;;;;;;;12.50;12.50;;;;;15.34;55.16;102209.34;4991002;28;9614;-65
2022/05/07 02:54:32;;;;;;;;;10.75;10.50;;;;;15.34;55.45;102208.50;4987908;28;9744;-65
2022/05/07 02:57:00;;;;;;;;;10.00;10.00;;;;;15.34;55.72;102203.06;4989136;28;9632;-65
2022/05/07 02:59:26;;;;;;;;;12.50;12.50;;;;;15.34;55.67;102206.63;4990755;28;9748;-65
2022/05/07 03:01:54;;;;;;;;;11.25;9.75;;;;;15.33;55.89;102210.38;4989520;28;9767;-65
2022/05/07 03:04:22;;;;;;;;;12.25;11.25;;;;;15.31;55.87;102209.75;4980511;28;9549;-64
2022/05/07 03:06:48;;;;;;;;;11.00;11.00;;;;;15.30;55.68;102213.47;4989213;28;9794;-65
2022/05/07 03:09:15;;;;;;;;;9.00;8.50;;;;;15.28;56.13;102212.84;4988878;28;9654;-65
2022/05/07 03:11:43;;;;;;;;;8.50;8.25;;;;;15.25;56.29;102213.22;4989565;28;9701;-64
2022/05/07 03:14:14;;;;;;;;;12.50;11.75;;;;;15.23;56.24;102212.59;4989682;28;9743;-65
2022/05/07 03:16:41;;;;;;;;;11.75;11.75;;;;;15.22;56.23;102212.75;4988637;28;9778;-64
2022/05/07 03:19:07;;;;;;;;;11.25;10.00;;;;;15.20;56.66;102212.97;4990328;28;9704;-64
2022/05/07 03:21:34;;;;;;;;;9.00;9.00;;;;;15.20;56.49;102212.97;5005930;28;9688;-63
2022/05/07 03:24:01;;;;;;;;;9.00;8.25;;;;;15.18;56.86;102220.44;4989856;28;10360;-63
2022/05/07 03:26:28;;;;;;;;;13.50;10.25;;;;;15.16;56.96;102221.66;4989668;28;9712;-65
2022/05/07 03:28:54;;;;;;;;;10.50;8.25;;;;;15.14;57.11;102212.88;4988297;28;9751;-63
2022/05/07 03:31:21;;;;;;;;;9.50;8.00;;;;;15.13;57.26;102212.03;4990704;28;10383;-65
2022/05/07 03:33:48;;;;;;;;;10.25;9.75;;;;;15.13;57.66;102222.03;4989724;28;9702;-65
2022/05/07 03:36:21;;;;;;;;;11.25;11.00;;;;;15.12;57.39;102220.38;4989159;28;9606;-65
2022/05/07 03:38:49;;;;;;;;;11.25;11.00;;;;;15.06;57.91;102220.06;5004312;28;10656;-65
2022/05/07 03:41:21;;;;;;;;;11.75;8.50;;;;;15.07;58.02;102229.09;4987915;28;10531;-63
2022/05/07 03:43:48;;;;;;;;;9.00;9.00;;;;;15.05;58.45;102217.56;4990336;28;9609;-65
2022/05/07 03:46:15;;;;;;;;;11.25;9.00;;;;;15.04;58.60;102226.75;4992711;28;10507;-64
2022/05/07 03:48:51;;;;;;;;;11.00;10.25;;;;;15.05;58.77;102226.53;4988844;28;9866;-64
2022/05/07 03:51:18;;;;;;;;;15.00;12.75;;;;;15.02;58.89;102228.78;4991294;28;9663;-63
2022/05/07 03:53:45;;;;;;;;;8.50;8.50;;;;;15.03;59.25;102225.06;4992709;28;9846;-63
2022/05/07 03:56:15;;;;;;;;;14.25;12.50;;;;;15.01;59.37;102233.38;4992743;28;9847;-65
2022/05/07 03:58:42;;;;;;;;;10.75;10.75;;;;;15.02;59.64;102231.50;4992179;28;9902;-65
2022/05/07 04:01:16;;;;;;;;;12.50;12.25;;;;;15.01;59.82;102237.97;4992502;28;9680;-65
2022/05/07 04:03:42;;;;;;;;;13.75;13.75;;;;;15.00;59.63;102236.28;4993032;28;9921;-64
2022/05/07 04:06:10;;;;;;;;;16.00;13.50;;;;;15.00;59.93;102239.00;5006174;28;10006;-66
2022/05/07 04:08:36;;;;;;;;;12.75;11.50;;;;;15.00;60.02;102239.00;4992734;28;9863;-66
2022/05/07 04:11:05;;;;;;;;;17.50;15.25;;;;;15.00;60.32;102241.72;5006169;28;9764;-66
2022/05/07 04:13:32;;;;;;;;;16.00;13.25;;;;;14.96;60.76;102234.97;4993448;28;10034;-67
2022/05/07 04:16:00;;;;;;;;;16.25;13.50;;;;;14.96;60.95;102237.69;4997975;28;9955;-68
2022/05/07 04:18:32;;;;;;;;;17.00;15.75;;;;;14.97;61.44;102239.38;4991827;28;9996;-66
2022/05/07 04:21:02;;;;;;;;;13.00;11.75;;;;;14.98;61.61;102238.34;4990264;28;10028;-66
2022/05/07 04:23:31;;;;;;;;;13.75;12.25;;;;;14.97;61.96;102239.38;4991567;28;10729;-67
2022/05/07 04:25:58;;;;;;;;;15.00;11.75;;;;;14.97;62.22;102245.63;4991608;28;10010;-64
2022/05/07 04:28:27;;;;;;;;;11.25;9.00;;;;;14.97;62.39;102242.91;4984588;28;10636;-65
2022/05/07 04:30:56;;;;;;;;;13.75;12.50;;;;;14.95;62.30;102242.28;5004285;28;9847;-67
2022/05/07 04:33:26;;;;;;;;;16.50;15.00;;;;;14.95;62.57;102246.84;4984566;28;9956;-66
2022/05/07 04:35:59;;;;;;;;;17.25;14.50;;;;;14.94;62.88;102248.72;4992763;28;9875;-66
2022/05/07 04:38:26;;;;;;;;;11.25;11.25;;;;;14.92;63.38;102253.50;4987106;28;9925;-67
2022/05/07 04:40:54;;;;;;;;;13.50;12.25;;;;;14.91;63.66;102259.09;4973501;28;9754;-65
2022/05/07 04:43:25;;;;;;;;;17.50;16.75;;;;;14.89;63.88;102255.75;4984177;28;9785;-67
2022/05/07 04:45:52;;;;;;;;;14.00;12.00;;;;;14.89;64.42;102251.16;5007525;28;10004;-67
2022/05/07 04:48:23;;;;;;;;;18.00;15.75;;;;;14.90;64.38;102250.13;4975232;28;10047;-67
2022/05/07 04:50:50;;;;;;;;;17.50;14.50;;;;;14.86;64.54;102240.69;4990636;28;10047;-66
2022/05/07 04:53:28;;;;;;;;;22.75;22.75;;;;;14.75;64.75;102230.34;4998099;28;9868;-66
2022/05/07 04:56:01;;;;;;;;;21.50;18.75;;;;;14.69;65.21;102231.06;4974276;28;10339;-66
2022/05/07 04:58:30;;;;;;;;;25.00;21.50;;;;;14.70;65.62;102241.72;4989965;28;10014;-66
2022/05/07 05:00:58;;;;;;;;;22.50;19.75;;;;;14.71;65.95;102250.72;4991288;28;10248;-65
2022/05/07 05:03:24;;;;;;;;;24.50;19.75;;;;;14.70;66.06;102252.56;4991386;28;10906;-66
2022/05/07 05:06:03;;;;;;;;;18.25;17.25;;;;;14.71;66.53;102250.72;4991543;28;10108;-66
2022/05/07 05:08:48;;;;;;;;;27.00;24.75;;;;;14.72;66.76;102255.94;4989890;28;10036;-66
2022/05/07 05:11:15;;;;;;;;;24.00;21.75;;;;;14.73;66.99;102254.06;5005636;28;10199;-66
2022/05/07 05:13:44;;;;;;;;;25.75;23.50;;;;;14.72;67.01;102266.78;4998606;28;10173;-65
2022/05/07 05:16:11;;;;;;;;;25.00;21.50;;;;;14.72;67.27;102261.34;4991245;28;10431;-67
2022/05/07 05:18:43;;;;;;;;;24.75;21.00;;;;;14.71;67.52;102265.09;4990509;28;10282;-66
2022/05/07 05:21:12;;;;;;;;;26.25;25.25;;;;;14.69;67.43;102271.72;4990918;28;10325;-65
2022/05/07 05:24:17;;;;;;;;;22.00;20.50;;;;;14.67;67.72;102279.22;4984925;28;10440;-65
2022/05/07 05:26:44;;;;;;;;;25.50;25.00;;;;;14.65;67.74;102273.13;4990646;28;10274;-67
2022/05/07 05:29:16;;;;;;;;;24.00;24.00;;;;;14.63;67.82;102276.03;4990532;28;10265;-67
2022/05/07 05:31:43;;;;;;;;;32.00;22.25;;;;;14.64;68.02;102285.84;4989329;28;10350;-67
2022/05/07 05:34:24;;;;;;;;;29.00;24.75;;;;;14.65;68.00;102282.09;4999547;28;10418;-66
2022/05/07 05:36:52;;;;;;;;;26.25;26.25;;;;;14.67;68.22;102281.94;4989047;28;10437;-65
2022/05/07 05:39:21;;;;;;;;;29.75;22.75;;;;;14.67;68.11;102288.19;4989906;28;10449;-65
2022/05/07 05:41:50;;;;;;;;;23.75;19.75;;;;;14.68;68.13;102286.31;4998071;28;10457;-66
2022/05/07 05:44:18;;;;;;;;;27.75;23.75;;;;;14.66;68.19;102285.66;4990546;28;10254;-66
2022/05/07 05:46:44;;;;;;;;;26.50;25.00;;;;;14.66;68.08;102288.34;4988914;28;10295;-66
2022/05/07 05:49:11;;;;;;;;;36.75;32.50;;;;;14.64;67.91;102288.56;4990485;28;10270;-65
2022/05/07 05:51:41;;;;;;;;;25.75;25.25;;;;;14.66;68.37;102285.66;4989415;28;10616;-66
2022/05/07 05:54:09;;;;;;;;;25.00;23.75;;;;;14.67;68.12;102284.63;4988795;28;10503;-66
2022/05/07 05:56:36;;;;;;;;;35.25;26.75;;;;;14.70;68.36;102284.25;5000318;28;10455;-66
2022/05/07 05:59:05;;;;;;;;;31.00;27.50;;;;;14.74;68.31;102289.09;4990824;28;10382;-65
2022/05/07 06:01:50;;;;;;;;;27.00;26.25;;;;;14.77;68.16;102277.91;5005885;28;10484;-66
2022/05/07 06:04:23;;;;;;;;;41.75;34.25;;;;;14.83;68.33;102281.75;4999301;28;10473;-64
2022/05/07 06:06:52;;;;;;;;;33.25;30.50;;;;;14.92;68.36;102296.88;4975526;28;10722;-65
2022/05/07 06:09:18;;;;;;;;;34.75;32.25;;;;;15.00;68.28;102299.50;4987614;28;10480;-64
2022/05/07 06:11:46;;;;;;;;;31.50;30.75;;;;;15.13;68.31;102298.00;5004745;28;10604;-64
2022/05/07 06:14:13;;;;;;;;;38.00;32.25;;;;;15.21;67.79;102297.88;4990227;28;10526;-66
2022/05/07 06:16:39;;;;;;;;;40.00;33.75;;;;;15.29;67.70;102308.63;4994009;28;10481;-65
2022/05/07 06:19:11;;;;;;;;;36.00;30.25;;;;;15.40;67.46;102310.03;4990013;28;10373;-66
2022/05/07 06:21:43;;;;;;;;;44.25;37.00;;;;;15.52;66.95;102309.34;4989272;28;10906;-67
2022/05/07 06:29:45;;;;;;;;;30.25;28.75;;;;;15.54;66.72;102317.28;4988463;28;10357;-67
2022/05/07 06:32:13;;;;;;;;;47.25;37.25;;;;;15.53;66.61;102321.03;4988476;28;10352;-65
2022/05/07 06:34:40;;;;;;;;;32.75;31.25;;;;;15.53;66.82;102315.59;4989741;28;10702;-66
2022/05/07 06:37:07;;;;;;;;;35.00;31.50;;;;;15.54;66.86;102323.53;4990284;28;10441;-67
2022/05/07 06:39:37;;;;;;;;;44.00;34.50;;;;;15.52;66.77;102317.47;4989290;28;10349;-66
2022/05/07 06:42:05;;;;;;;;;39.75;36.75;;;;;15.49;67.08;102320.56;4980468;28;11174;-66
2022/05/07 06:44:31;;;;;;;;;35.25;33.00;;;;;15.48;67.15;102324.31;4970581;28;10617;-66
2022/05/07 06:47:02;;;;;;;;;42.25;35.00;;;;;15.53;67.20;102324.56;4978912;28;10441;-66
2022/05/07 06:49:29;;;;;;;;;34.75;32.25;;;;;15.63;67.33;102329.69;4995479;28;10515;-66
2022/05/07 06:51:56;;;;;;;;;32.50;27.00;;;;;15.70;67.82;102330.66;4989366;28;10435;-65
2022/05/07 06:54:22;;;;;;;;;33.50;31.25;;;;;15.76;67.13;102337.19;4990874;28;10276;-67
2022/05/07 06:56:49;;;;;;;;;39.25;32.25;;;;;15.80;67.38;102333.06;4990699;28;10339;-65
2022/05/07 06:59:16;;;;;;;;;34.00;32.00;;;;;15.82;67.21;102328.28;4990295;28;10277;-67
2022/05/07 07:01:42;;;;;;;;;34.50;29.75;;;;;15.88;67.04;102337.50;4989654;28;10179;-66
2022/05/07 07:04:09;;;;;;;;;41.25;35.25;;;;;15.89;67.10;102336.50;4985816;28;10148;-65
2022/05/07 07:06:36;;;;;;;;;42.00;37.50;;;;;15.89;67.07;102336.50;4988834;28;10430;-67
2022/05/07 07:09:03;;;;;;;;;37.75;32.00;;;;;15.89;66.91;102340.06;4990630;28;10277;-66
2022/05/07 07:11:30;;;;;;;;;41.50;32.00;;;;;15.91;66.57;102339.84;4990129;28;11030;-66
2022/05/07 07:13:56;;;;;;;;;40.50;35.25;;;;;15.92;66.39;102336.97;4989876;28;10233;-66
2022/05/07 07:16:23;;;;;;;;;32.25;29.00;;;;;15.96;66.58;102342.81;4989721;28;10261;-64
2022/05/07 07:18:50;;;;;;;;;31.50;27.50;;;;;16.05;66.39;102341.69;4987283;28;10112;-62
2022/05/07 07:21:16;;;;;;;;;51.75;40.25;;;;;16.07;65.19;102334.16;4994135;28;9878;-64
2022/05/07 07:23:43;;;;;;;;;43.50;37.75;;;;;16.04;65.70;102345.41;4992125;28;10443;-63
2022/05/07 07:26:09;;;;;;;;;42.00;35.00;;;;;16.13;65.68;102344.25;4994245;28;10699;-64
2022/05/07 07:28:36;;;;;;;;;33.25;32.25;;;;;16.25;65.64;102341.88;4992059;28;10885;-63
2022/05/07 07:31:03;;;;;;;;;29.25;28.25;;;;;16.30;64.91;102348.38;4994000;28;9992;-63
2022/05/07 07:33:30;;;;;;;;;35.00;31.50;;;;;16.32;64.76;102346.28;4993723;28;10691;-63
2022/05/07 07:35:56;;;;;;;;;31.75;30.00;;;;;16.27;64.52;102346.06;4994143;28;10097;-63
2022/05/07 07:38:26;;;;;;;;;26.25;22.25;;;;;16.37;64.50;102347.63;4993890;28;9974;-64
2022/05/07 07:40:53;;;;;;;;;29.50;27.75;;;;;16.49;63.72;102346.88;4993887;28;10402;-64
2022/05/07 07:43:22;;;;;;;;;37.00;32.00;;;;;16.53;63.80;102355.50;4989893;28;9829;-63
2022/05/07 07:48:35;;;;;;;;;35.00;28.75;;;;;16.51;63.51;102358.38;5008508;28;9960;-65
2022/05/07 07:51:01;;;;;;;;;30.00;27.75;;;;;16.61;63.68;102363.50;4993288;28;9954;-63
2022/05/07 07:53:28;;;;;;;;;25.25;22.50;;;;;16.78;63.80;102359.47;4993000;28;9692;-62
2022/05/07 07:55:54;;;;;;;;;29.00;25.00;;;;;16.96;63.44;102350.78;4991691;28;9632;-63
2022/05/07 07:58:21;;;;;;;;;28.25;28.00;;;;;17.07;62.76;102351.28;4992891;28;9932;-64
2022/05/07 08:00:48;;;;;;;;;22.50;20.75;;;;;17.11;62.27;102358.00;4992675;28;10572;-62
2022/05/07 08:03:17;;;;;;;;;26.25;22.50;;;;;17.15;61.85;102362.00;4992795;28;9626;-64
2022/05/07 08:05:49;;;;;;;;;28.25;22.25;;;;;17.19;61.42;102366.00;4993442;28;9776;-64
2022/05/07 08:13:48;;;;;;;;;28.25;25.25;;;;;17.26;60.02;102356.84;4993479;28;9925;-64
2022/05/07 08:16:19;;;;;;;;;34.00;28.75;;;;;17.25;60.19;102354.31;4993081;28;9848;-63
2022/05/07 08:18:47;;;;;;;;;22.75;21.50;;;;;17.31;60.40;102353.50;4991365;28;9909;-64
2022/05/07 08:21:13;;;;;;;;;18.67;17.67;;;;;17.37;60.58;102352.69;4993148;28;9558;-63
2022/05/07 08:23:41;;;;;;;;;21.25;19.50;;;;;17.39;60.40;102347.06;4991040;28;9329;-64
2022/05/07 08:26:09;;;;;;;;;25.67;20.33;;;;;17.43;59.94;102351.06;4993163;28;9436;-64
2022/05/07 08:28:37;;;;;;;;;24.25;23.00;;;;;17.39;59.73;102350.63;4992343;28;9309;-64
2022/05/07 08:31:04;;;;;;;;;22.00;22.00;;;;;17.41;60.45;102353.97;4992201;28;9745;-64
2022/05/07 08:33:32;;;;;;;;;35.00;31.25;;;;;17.44;59.71;102358.16;4991864;28;9491;-64
2022/05/07 08:35:59;;;;;;;;;28.50;26.75;;;;;17.45;59.67;102362.56;4991371;28;9730;-63
2022/05/07 08:38:26;;;;;;;;;23.00;19.33;;;;;17.53;59.08;102360.50;4990306;28;9700;-63
2022/05/07 08:40:53;;;;;;;;;21.67;21.67;;;;;17.65;59.01;102365.38;4992628;28;10298;-64
2022/05/07 08:43:20;;;;;;;;;29.75;26.50;;;;;17.67;59.07;102364.13;4991128;28;10275;-64
2022/05/07 08:45:47;;;;;;;;;27.50;23.25;;;;;17.71;58.56;102368.13;4992144;28;9710;-66
2022/05/07 08:48:13;;;;;;;;;30.50;24.00;;;;;17.75;58.05;102374.03;4994099;28;9599;-63
2022/05/07 08:50:40;;;;;;;;;32.00;28.75;;;;;17.85;57.44;102365.47;4989402;28;9722;-64
2022/05/07 08:53:09;;;;;;;;;27.75;25.25;;;;;17.89;57.24;102369.47;4990016;28;9764;-65
2022/05/07 08:55:36;;;;;;;;;23.00;21.50;;;;;17.98;57.17;102369.06;4992779;28;9561;-65
2022/05/07 08:58:02;;;;;;;;;22.25;22.25;;;;;18.14;57.31;102364.25;4991891;28;9455;-65
2022/05/07 09:00:29;;;;;;;;;20.00;18.00;;;;;18.31;56.90;102365.56;4992799;28;9548;-63
2022/05/07 09:03:00;;;;;;;;;27.33;25.33;;;;;18.45;55.86;102372.69;4992546;28;9182;-64
2022/05/07 09:05:35;;;;;;;;;24.00;22.67;;;;;18.49;56.07;102375.84;4984450;28;9445;-63
2022/05/07 09:08:03;;;;;;;;;29.67;25.00;;;;;18.60;56.03;102379.84;4990448;28;9418;-63
2022/05/07 09:10:37;;;;;;;;;29.00;26.75;;;;;18.65;54.82;102377.31;4989211;28;9379;-64
2022/05/07 09:13:06;;;;;;;;;30.25;27.50;;;;;18.56;54.87;102381.31;4987233;28;9613;-66
2022/05/07 09:15:33;;;;;;;;;22.00;20.00;;;;;18.60;54.88;102375.22;4990476;28;9718;-65
2022/05/07 09:17:59;;;;;;;;;26.67;22.00;;;;;18.68;54.04;102383.19;4983431;28;9435;-63
2022/05/07 09:20:27;;;;;;;;;20.00;16.00;;;;;18.74;54.21;102387.81;4990293;28;9442;-64
2022/05/07 09:22:55;;;;;;;;;21.67;18.00;;;;;18.83;53.89;102395.78;4996231;28;9253;-65
2022/05/07 09:25:23;;;;;;;;;22.00;21.00;;;;;18.82;53.07;102394.94;4991270;28;9277;-64
2022/05/07 09:27:51;;;;;;;;;18.33;15.67;;;;;18.84;53.66;102397.44;4991594;28;9240;-62
2022/05/07 09:30:29;;;;;;;;;23.00;20.67;;;;;18.85;53.49;102390.97;4991817;28;9797;-66
2022/05/07 09:32:57;;;;;;;;;18.33;17.67;;;;;18.89;53.00;102382.16;4979990;28;9409;-64
2022/05/07 09:38:15;;;;;;;;;23.67;22.33;;;;;19.07;53.12;102383.38;4986986;28;9329;-64
2022/05/07 09:40:44;;;;;;;;;18.67;18.67;;;;;19.17;53.42;102389.25;4990572;28;9386;-63
2022/05/07 09:43:12;;;;;;;;;18.00;18.00;;;;;19.19;52.54;102381.66;4990614;28;9275;-65
2022/05/07 09:45:39;;;;;;;;;23.67;22.67;;;;;19.14;52.86;102381.47;4990460;28;9270;-62
2022/05/07 09:48:07;;;;;;;;;29.00;26.00;;;;;19.13;53.00;102386.09;4987971;28;9403;-65
2022/05/07 09:58:42;;;;;;;;;23.00;22.67;;;;;19.27;51.61;102393.19;4990530;28;9233;-64
2022/05/07 10:01:21;;;;;;;;;33.33;25.00;;;;;19.16;52.71;102396.59;4986767;28;9145;-64
2022/05/07 10:04:23;;;;;;;;;22.00;22.00;;;;;19.17;53.28;102398.25;4990512;28;9292;-65
2022/05/07 10:07:08;;;;;;;;;20.67;19.00;;;;;19.31;53.67;102404.50;4986495;28;9859;-64
2022/05/07 10:09:42;;;;;;;;;18.00;17.00;;;;;19.32;53.36;102397.16;4991661;28;9239;-65
2022/05/07 10:12:16;;;;;;;;;27.33;26.33;;;;;19.27;53.08;102401.38;4990736;28;9856;-63
2022/05/07 10:14:42;;;;;;;;;30.33;25.33;;;;;19.16;53.11;102410.25;4989461;28;9285;-65
2022/05/07 10:17:11;;;;;;;;;23.67;22.00;;;;;19.17;53.54;102411.91;4990603;28;9239;-66
2022/05/07 10:19:43;;;;;;;;;27.33;26.67;;;;;19.23;53.37;102407.47;4990864;28;9657;-67
2022/05/07 10:22:16;;;;;;;;;30.33;29.67;;;;;19.23;53.20;102413.78;4979513;28;9351;-65
2022/05/07 10:24:43;;;;;;;;;35.67;31.33;;;;;19.17;53.31;102409.19;4971531;28;9225;-65
2022/05/07 10:27:21;;;;;;;;;32.25;30.00;;;;;19.18;53.54;102412.75;4979029;28;9427;-65
2022/05/07 10:29:47;;;;;;;;;38.25;30.25;;;;;19.12;53.76;102422.63;4990279;28;9835;-66
2022/05/07 10:32:19;;;;;;;;;29.33;29.00;;;;;19.21;54.07;102404.97;4990141;28;9448;-67
2022/05/07 10:34:50;;;;;;;;;36.00;33.75;;;;;19.35;54.17;102410.38;4990990;28;9451;-67
2022/05/07 10:37:18;;;;;;;;;30.50;27.00;;;;;19.35;53.58;102408.50;4990421;28;9611;-66
2022/05/07 10:39:52;;;;;;;;;26.00;26.00;;;;;19.39;53.45;102398.81;4990923;28;9527;-67
2022/05/07 10:42:21;;;;;;;;;33.33;31.33;;;;;19.34;53.27;102408.72;4990678;28;9931;-68
2022/05/07 10:44:49;;;;;;;;;26.33;23.33;;;;;19.20;53.50;102411.50;4983251;28;9481;-66
2022/05/07 10:47:18;;;;;;;;;43.00;35.50;;;;;19.08;53.52;102410.47;4989664;28;9342;-66
2022/05/07 10:50:06;;;;;;;;;31.00;28.67;;;;;19.15;53.93;102410.44;4990819;28;9518;-68
2022/05/07 10:52:34;;;;;;;;;26.00;26.00;;;;;19.30;53.57;102408.31;4990530;28;9379;-67
2022/05/07 10:55:11;;;;;;;;;34.75;34.50;;;;;19.36;53.28;102401.13;4991722;28;9407;-66
2022/05/07 10:57:43;;;;;;;;;33.75;31.25;;;;;19.26;52.90;102407.06;4984690;28;9596;-66
2022/05/07 11:00:20;;;;;;;;;29.00;27.67;;;;;19.14;53.50;102409.59;4994147;28;9705;-66
2022/05/07 11:02:49;;;;;;;;;38.25;33.75;;;;;19.18;54.44;102413.59;4994175;28;9461;-67
2022/05/07 11:05:17;;;;;;;;;31.33;30.00;;;;;19.27;54.04;102415.03;4994620;28;9608;-67
2022/05/07 11:07:44;;;;;;;;;35.75;33.75;;;;;19.42;54.01;102405.75;4994085;28;9291;-66
2022/05/07 11:10:11;;;;;;;;;42.75;36.75;;;;;19.37;54.00;102417.31;4992764;28;9535;-67
2022/05/07 11:12:39;;;;;;;;;31.67;31.00;;;;;19.26;53.38;102407.06;4994309;28;9472;-66
2022/05/07 11:15:06;;;;;;;;;35.33;33.67;;;;;19.21;53.99;102409.59;4994521;28;9453;-67
2022/05/07 11:17:35;;;;;;;;;28.67;28.33;;;;;19.17;53.91;102409.19;4994046;28;9380;-65
2022/05/07 11:20:09;;;;;;;;;39.00;33.50;;;;;19.09;54.39;102412.13;4994495;28;10133;-65
2022/05/07 11:22:39;;;;;;;;;30.33;23.67;;;;;18.98;54.77;102413.59;4993996;28;9696;-66
2022/05/07 11:25:08;;;;;;;;;24.33;24.33;;;;;18.96;54.27;102414.91;4992518;28;9239;-66
2022/05/07 11:27:34;;;;;;;;;36.75;33.50;;;;;18.94;54.36;102415.09;4987146;28;9319;-66
2022/05/07 11:30:04;;;;;;;;;29.33;27.00;;;;;18.98;54.64;102407.31;4994190;28;9709;-65
2022/05/07 11:32:38;;;;;;;;;41.50;37.00;;;;;18.96;54.60;102406.72;4994006;28;9308;-66
2022/05/07 11:35:05;;;;;;;;;36.50;34.50;;;;;18.97;54.98;102413.84;4994279;28;10088;-68
2022/05/07 11:37:58;;;;;;;;;34.00;32.00;;;;;18.97;55.09;102411.09;4992395;28;9621;-66
2022/05/07 11:40:29;;;;;;;;;28.00;22.00;;;;;18.97;54.48;102411.09;4984342;28;9532;-66
2022/05/07 11:45:42;;;;;;;;;18.25;16.75;;;;;19.20;52.63;102403.31;4945172;28;9072;-65
2022/05/07 11:48:09;;;;;;;;;34.33;31.33;;;;;19.30;51.96;102402.00;4993577;28;8926;-66
2022/05/07 11:50:41;;;;;;;;;43.25;39.25;;;;;19.34;53.36;102408.72;4993363;28;10126;-66
2022/05/07 11:53:13;;;;;;;;;33.67;31.67;;;;;19.28;53.76;102413.13;4991886;28;9583;-64
2022/05/07 11:55:40;;;;;;;;;46.00;39.50;;;;;19.08;54.30;102412.31;4992091;28;9468;-67
2022/05/07 11:58:14;;;;;;;;;34.25;34.00;;;;;18.86;54.68;102417.19;4990091;28;10125;-67